createdAt,value
2023-03-22T00:00:01.483Z,2.97
2023-03-22T00:02:33.214Z,2.93
2023-03-22T00:05:02.493Z,3.50
2023-03-22T00:07:31.560Z,2.70
2023-03-22T00:10:01.415Z,2.90
2023-03-22T00:12:31.789Z,3.13
2023-03-22T00:15:09.610Z,2.93
2023-03-22T00:17:39.556Z,3.50
2023-03-22T00:20:16.165Z,3.17
2023-03-22T00:22:46.736Z,3.30
2023-03-22T00:25:15.968Z,3.27
2023-03-22T00:27:44.833Z,3.17
2023-03-22T00:30:17.559Z,2.70
2023-03-22T00:32:47.965Z,3.30
2023-03-22T00:35:19.636Z,3.40
2023-03-22T00:37:51.293Z,3.27
2023-03-22T00:40:21.385Z,3.00
2023-03-22T00:42:55.137Z,3.13
2023-03-22T00:45:23.005Z,2.70
2023-03-22T00:47:59.161Z,3.43
2023-03-22T00:50:29.273Z,2.90
2023-03-22T00:52:57.189Z,2.63
2023-03-22T00:55:26.272Z,2.50
2023-03-22T00:57:56.570Z,3.20
2023-03-22T01:00:29.375Z,3.00
2023-03-22T01:02:59.859Z,3.20
2023-03-22T01:05:30.330Z,4.00
2023-03-22T01:08:02.802Z,3.80
2023-03-22T01:10:30.672Z,3.40
2023-03-22T01:12:58.548Z,4.00
2023-03-22T01:15:27.722Z,3.57
2023-03-22T01:17:57.437Z,4.07
2023-03-22T01:20:25.730Z,3.37
2023-03-22T01:22:55.097Z,3.90
2023-03-22T01:25:23.065Z,3.47
2023-03-22T01:27:52.337Z,4.30
2023-03-22T01:30:21.153Z,4.40
2023-03-22T01:32:49.349Z,3.17
2023-03-22T01:35:19.610Z,3.60
2023-03-22T01:37:52.773Z,3.83
2023-03-22T01:40:23.374Z,4.53
2023-03-22T01:42:51.228Z,4.10
2023-03-22T01:45:34.890Z,4.20
2023-03-22T01:48:05.750Z,3.40
2023-03-22T01:50:34.018Z,3.77
2023-03-22T01:53:07.855Z,4.00
2023-03-22T01:55:42.698Z,3.30
2023-03-22T01:58:12.848Z,3.13
2023-03-22T02:00:43.312Z,3.70
2023-03-22T02:03:12.365Z,3.50
2023-03-22T02:05:42.838Z,3.93
2023-03-22T02:08:15.203Z,3.70
2023-03-22T02:10:46.402Z,3.40
2023-03-22T02:13:27.639Z,3.77
2023-03-22T02:16:03.830Z,3.30
2023-03-22T02:18:55.064Z,3.63
2023-03-22T02:21:38.098Z,3.80
2023-03-22T02:24:47.349Z,4.33
2023-03-22T02:27:32.453Z,3.30
2023-03-22T02:30:21.391Z,3.73
2023-03-22T02:33:10.829Z,3.67
2023-03-22T02:35:44.665Z,3.70
2023-03-22T02:38:57.799Z,4.00
2023-03-22T02:41:31.027Z,3.27
2023-03-22T02:44:06.113Z,3.50
2023-03-22T02:46:38.910Z,3.50
2023-03-22T02:49:12.310Z,3.50
2023-03-22T02:51:44.798Z,3.57
2023-03-22T02:54:21.160Z,3.50
2023-03-22T02:56:54.936Z,4.13
2023-03-22T02:59:23.313Z,3.50
2023-03-22T03:01:58.136Z,3.40
2023-03-22T03:04:32.591Z,3.50
2023-03-22T03:07:07.367Z,2.70
2023-03-22T03:09:36.778Z,3.50
2023-03-22T03:12:15.064Z,3.10
2023-03-22T03:14:48.567Z,3.03
2023-03-22T03:17:30.807Z,3.00
2023-03-22T03:20:22.605Z,3.30
2023-03-22T03:22:57.001Z,4.23
2023-03-22T03:25:32.644Z,2.90
2023-03-22T03:28:04.898Z,3.10
2023-03-22T03:30:39.914Z,3.13
2023-03-22T03:33:12.792Z,3.03
2023-03-22T03:35:42.990Z,3.30
2023-03-22T03:38:14.829Z,3.20
2023-03-22T03:40:52.922Z,3.43
2023-03-22T03:43:33.977Z,3.40
2023-03-22T03:46:02.191Z,3.00
2023-03-22T03:48:33.340Z,3.20
2023-03-22T03:51:02.964Z,2.83
2023-03-22T03:53:31.768Z,3.17
2023-03-22T03:56:06.702Z,3.03
2023-03-22T03:58:35.013Z,3.23
2023-03-22T04:01:04.060Z,3.63
2023-03-22T04:03:32.668Z,3.53
2023-03-22T04:06:01.062Z,3.07
2023-03-22T04:08:28.915Z,3.47
2023-03-22T04:10:57.284Z,3.03
2023-03-22T04:13:29.902Z,2.70
2023-03-22T04:16:02.058Z,3.07
2023-03-22T04:18:31.634Z,2.97
2023-03-22T04:20:59.383Z,3.30
2023-03-22T04:23:28.205Z,2.53
2023-03-22T04:25:59.541Z,3.30
2023-03-22T04:28:30.006Z,2.90
2023-03-22T04:30:57.929Z,3.10
2023-03-22T04:33:26.168Z,3.77
2023-03-22T04:35:56.955Z,3.70
2023-03-22T04:38:26.131Z,3.53
2023-03-22T04:40:53.938Z,3.70
2023-03-22T04:43:27.309Z,3.03
2023-03-22T04:46:00.259Z,3.90
2023-03-22T04:48:28.151Z,3.60
2023-03-22T04:51:04.221Z,2.90
2023-03-22T04:53:32.183Z,3.20
2023-03-22T04:56:00.350Z,2.63
2023-03-22T04:58:31.222Z,3.40
2023-03-22T05:01:05.503Z,3.37
2023-03-22T05:03:33.938Z,3.57
2023-03-22T05:06:03.054Z,3.40
2023-03-22T05:08:32.733Z,3.17
2023-03-22T05:11:07.305Z,3.00
2023-03-22T05:13:36.765Z,3.20
2023-03-22T05:16:07.873Z,2.50
2023-03-22T05:18:40.753Z,3.00
2023-03-22T05:21:15.628Z,3.10
2023-03-22T05:23:43.665Z,3.53
2023-03-22T05:26:18.883Z,3.47
2023-03-22T05:28:49.498Z,2.97
2023-03-22T05:31:23.515Z,3.40
2023-03-22T05:33:54.388Z,2.53
2023-03-22T05:36:24.170Z,2.90
2023-03-22T05:38:53.690Z,3.20
2023-03-22T05:41:32.633Z,2.87
2023-03-22T05:44:01.461Z,3.03
2023-03-22T05:46:34.378Z,3.13
2023-03-22T05:49:03.071Z,3.27
2023-03-22T05:51:31.097Z,2.57
2023-03-22T05:53:58.966Z,3.30
2023-03-22T05:56:27.096Z,3.30
2023-03-22T05:58:54.840Z,3.07
2023-03-22T06:01:23.256Z,3.40
2023-03-22T06:03:55.838Z,2.50
2023-03-22T06:06:23.970Z,2.50
2023-03-22T06:08:52.625Z,3.07
2023-03-22T06:11:22.765Z,3.23
2023-03-22T06:13:52.546Z,3.40
2023-03-22T06:16:21.984Z,3.07
2023-03-22T06:19:01.627Z,3.40
2023-03-22T06:21:34.848Z,2.80
2023-03-22T06:24:03.332Z,3.23
2023-03-22T06:26:39.929Z,3.33
2023-03-22T06:29:08.202Z,3.60
2023-03-22T06:31:36.381Z,3.00
2023-03-22T06:34:05.243Z,2.90
2023-03-22T06:36:34.862Z,3.43
2023-03-22T06:39:05.269Z,3.30
2023-03-22T06:41:35.268Z,4.30
2023-03-22T06:44:03.887Z,3.30
2023-03-22T06:46:32.182Z,3.03
2023-03-22T06:49:00.065Z,3.30
2023-03-22T06:51:28.498Z,2.70
2023-03-22T06:53:59.705Z,3.20
2023-03-22T06:56:31.482Z,3.10
2023-03-22T06:59:00.095Z,2.70
2023-03-22T07:01:29.766Z,2.13
2023-03-22T07:03:57.894Z,3.03
2023-03-22T07:06:26.552Z,2.77
2023-03-22T07:08:55.698Z,2.73
2023-03-22T07:11:27.314Z,3.07
2023-03-22T07:13:55.843Z,2.53
2023-03-22T07:16:24.103Z,2.50
2023-03-22T07:18:51.940Z,2.30
2023-03-22T07:21:20.148Z,2.40
2023-03-22T07:23:52.235Z,2.47
2023-03-22T07:26:22.868Z,2.63
2023-03-22T07:28:59.309Z,3.07
2023-03-22T07:31:29.289Z,2.77
2023-03-22T07:33:57.219Z,2.30
2023-03-22T07:36:25.800Z,2.60
2023-03-22T07:38:56.069Z,2.50
2023-03-22T07:41:30.273Z,2.40
2023-03-22T07:44:17.638Z,1.90
2023-03-22T07:46:57.476Z,2.23
2023-03-22T07:49:25.437Z,2.43
2023-03-22T07:51:53.860Z,2.30
2023-03-22T07:54:32.858Z,2.50
2023-03-22T07:57:08.123Z,3.07
2023-03-22T07:59:40.002Z,1.50
2023-03-22T08:02:10.652Z,1.97
2023-03-22T08:04:38.633Z,1.87
2023-03-22T08:07:10.211Z,2.00
2023-03-22T08:09:38.325Z,2.30
2023-03-22T08:12:07.683Z,2.47
2023-03-22T08:14:38.458Z,2.07
2023-03-22T08:17:09.547Z,1.87
2023-03-22T08:19:37.776Z,1.57
2023-03-22T08:22:08.214Z,2.23
2023-03-22T08:24:36.733Z,1.67
2023-03-22T08:27:04.892Z,1.50
2023-03-22T08:29:33.121Z,1.53
2023-03-22T08:32:09.967Z,2.00
2023-03-22T08:34:38.684Z,1.33
2023-03-22T08:37:11.263Z,1.57
2023-03-22T08:39:39.355Z,1.20
2023-03-22T08:42:10.114Z,1.40
2023-03-22T08:44:40.841Z,1.13
2023-03-22T08:47:13.076Z,1.20
2023-03-22T08:49:43.106Z,1.07
2023-03-22T08:52:14.641Z,1.23
2023-03-22T08:54:42.820Z,1.30
2023-03-22T08:57:11.851Z,1.10
2023-03-22T08:59:44.516Z,1.53
2023-03-22T09:02:14.157Z,1.47
2023-03-22T09:04:42.251Z,1.27
2023-03-22T09:07:10.667Z,1.57
2023-03-22T09:09:41.769Z,1.30
2023-03-22T09:12:10.416Z,1.10
2023-03-22T09:14:40.347Z,1.40
2023-03-22T09:17:08.989Z,1.10
2023-03-22T09:19:39.100Z,1.63
2023-03-22T09:22:07.379Z,1.33
2023-03-22T09:24:36.302Z,1.47
2023-03-22T09:27:10.166Z,1.27
2023-03-22T09:29:38.333Z,1.57
2023-03-22T09:32:07.229Z,1.30
2023-03-22T09:34:37.169Z,1.40
2023-03-22T09:37:09.515Z,1.33
2023-03-22T09:39:41.227Z,1.50
2023-03-22T09:42:19.091Z,1.40
2023-03-22T09:44:48.110Z,1.20
2023-03-22T09:47:26.950Z,1.37
2023-03-22T09:50:01.736Z,1.20
2023-03-22T09:52:34.091Z,1.30
2023-03-22T09:55:05.149Z,1.20
2023-03-22T09:57:37.440Z,1.53
2023-03-22T10:00:17.528Z,1.30
2023-03-22T10:02:53.826Z,1.10
2023-03-22T10:05:32.215Z,0.93
2023-03-22T10:08:25.385Z,1.47
2023-03-22T10:10:53.808Z,1.40
2023-03-22T10:13:26.214Z,1.37
2023-03-22T10:15:55.489Z,1.40
2023-03-22T10:18:29.477Z,1.60
2023-03-22T10:21:02.442Z,2.00
2023-03-22T10:23:35.648Z,1.80
2023-03-22T10:26:06.868Z,1.60
2023-03-22T10:28:40.599Z,1.70
2023-03-22T10:31:14.791Z,1.50
2023-03-22T10:33:53.017Z,1.70
2023-03-22T10:36:24.872Z,1.50
2023-03-22T10:39:00.724Z,1.57
2023-03-22T10:41:33.928Z,1.80
2023-03-22T10:44:07.023Z,1.77
2023-03-22T10:46:38.641Z,1.30
2023-03-22T10:49:07.507Z,1.73
2023-03-22T10:51:38.392Z,1.50
2023-03-22T10:54:26.071Z,1.10
2023-03-22T10:56:54.464Z,0.97
2023-03-22T10:59:45.672Z,1.23
2023-03-22T11:02:20.057Z,0.80
2023-03-22T11:04:50.160Z,0.90
2023-03-22T11:07:30.969Z,0.93
2023-03-22T11:10:24.879Z,0.73
2023-03-22T11:12:56.146Z,1.00
2023-03-22T11:15:28.120Z,0.63
2023-03-22T11:18:00.640Z,0.70
2023-03-22T11:20:30.662Z,0.60
2023-03-22T11:23:05.163Z,0.80
2023-03-22T11:25:39.790Z,0.83
2023-03-22T11:28:15.593Z,0.90
2023-03-22T11:31:03.033Z,0.70
2023-03-22T11:33:36.343Z,0.90
2023-03-22T11:36:09.566Z,0.80
2023-03-22T11:38:39.775Z,0.83
2023-03-22T11:41:21.219Z,0.73
2023-03-22T11:43:52.703Z,0.60
2023-03-22T11:46:26.986Z,0.87
2023-03-22T11:49:01.277Z,1.37
2023-03-22T11:51:31.064Z,0.67
2023-03-22T11:54:08.022Z,1.20
2023-03-22T11:56:41.731Z,1.23
2023-03-22T11:59:16.779Z,1.13
2023-03-22T12:01:49.883Z,0.80
2023-03-22T12:04:20.339Z,0.83
2023-03-22T12:06:49.004Z,1.13
2023-03-22T12:09:26.120Z,0.90
2023-03-22T12:12:00.983Z,0.70
2023-03-22T12:14:32.094Z,0.80
2023-03-22T12:17:06.367Z,0.90
2023-03-22T12:19:48.469Z,0.90
2023-03-22T12:22:21.288Z,1.00
2023-03-22T12:24:49.329Z,1.00
2023-03-22T12:27:22.598Z,1.10
2023-03-22T12:29:54.826Z,0.87
2023-03-22T12:32:25.915Z,1.00
2023-03-22T12:35:05.427Z,1.10
2023-03-22T12:37:44.962Z,0.93
2023-03-22T12:40:22.099Z,0.77
2023-03-22T12:43:00.081Z,1.23
2023-03-22T12:45:30.507Z,1.00
2023-03-22T12:48:03.847Z,0.90
2023-03-22T12:50:35.991Z,1.60
2023-03-22T12:53:04.571Z,1.10
2023-03-22T12:55:34.928Z,1.10
2023-03-22T12:58:09.098Z,1.13
2023-03-22T13:00:44.840Z,1.00
2023-03-22T13:03:27.813Z,1.00
2023-03-22T13:06:05.018Z,0.90
2023-03-22T13:09:10.746Z,0.83
2023-03-22T13:11:40.566Z,0.97
2023-03-22T13:14:23.919Z,0.63
2023-03-22T13:16:54.953Z,0.90
2023-03-22T13:19:34.094Z,0.83
2023-03-22T13:22:35.772Z,1.20
2023-03-22T13:25:15.574Z,0.70
2023-03-22T13:27:55.828Z,0.90
2023-03-22T13:30:31.081Z,0.97
2023-03-22T13:33:08.584Z,1.33
2023-03-22T13:35:46.846Z,1.07
2023-03-22T13:38:22.199Z,0.80
2023-03-22T13:40:58.062Z,1.20
2023-03-22T13:43:33.035Z,0.90
2023-03-22T13:46:46.698Z,1.23
2023-03-22T13:49:46.300Z,1.20
2023-03-22T13:52:26.217Z,1.10
2023-03-22T13:54:55.941Z,1.10
2023-03-22T13:57:50.598Z,1.00
2023-03-22T14:00:39.014Z,0.90
2023-03-22T14:03:16.667Z,0.73
2023-03-22T14:05:47.473Z,1.20
2023-03-22T14:08:24.719Z,0.97
2023-03-22T14:10:58.115Z,0.90
2023-03-22T14:13:33.294Z,1.10
2023-03-22T14:16:09.172Z,0.90
2023-03-22T14:18:44.460Z,1.00
2023-03-22T14:21:15.068Z,0.80
